13°C Temp
6°C Dewpoint
63% Humidity
Temperature
23 KM/H
14 MPH
12 KTS
290°
West North
West

Wind Speed
Mostly Scattered
Clouds
Pressure 1018.32 (hPa) - 30.07 (in)
Visibility 9.0 (mi) - 14.5 (km)

Current Conditions
CYZE
Location 50(km)
Metar :CYZE 302200Z AUTO 29012G19KT 9SM SCT085 13/06 A3007 RMK SLP189
Sat 30th May 18:00 pm

Airport
  Metar Aviation API Data Provided by https://www.checkwx.com/ PHP scripts by weather34.com ©2020